sensor_id;sensor_type;location;lat;lon;timestamp;P1;durP1;ratioP1;P2;durP2;ratioP2
3677;SDS011;1855;50.934;6.958;2023-02-18T00:01:57;8.38;;;7.68;;
3677;SDS011;1855;50.934;6.958;2023-02-18T00:04:24;9.32;;;8.52;;
3677;SDS011;1855;50.934;6.958;2023-02-18T00:06:51;8.90;;;8.10;;
3677;SDS011;1855;50.934;6.958;2023-02-18T00:09:18;9.00;;;8.30;;
3677;SDS011;1855;50.934;6.958;2023-02-18T00:11:46;9.05;;;8.35;;
3677;SDS011;1855;50.934;6.958;2023-02-18T00:14:13;9.15;;;8.35;;
3677;SDS011;1855;50.934;6.958;2023-02-18T00:16:41;8.90;;;8.20;;
3677;SDS011;1855;50.934;6.958;2023-02-18T00:19:10;8.65;;;7.85;;
3677;SDS011;1855;50.934;6.958;2023-02-18T00:21:38;8.30;;;7.60;;
3677;SDS011;1855;50.934;6.958;2023-02-18T00:24:05;8.93;;;8.13;;
3677;SDS011;1855;50.934;6.958;2023-02-18T00:26:33;8.68;;;7.88;;
3677;SDS011;1855;50.934;6.958;2023-02-18T00:29:01;8.57;;;7.88;;
3677;SDS011;1855;50.934;6.958;2023-02-18T00:31:29;8.97;;;8.17;;
3677;SDS011;1855;50.934;6.958;2023-02-18T00:33:57;8.07;;;7.45;;
3677;SDS011;1855;50.934;6.958;2023-02-18T00:36:24;8.63;;;7.82;;
3677;SDS011;1855;50.934;6.958;2023-02-18T00:38:52;8.98;;;8.27;;
3677;SDS011;1855;50.934;6.958;2023-02-18T00:41:21;8.90;;;8.10;;
3677;SDS011;1855;50.934;6.958;2023-02-18T00:43:49;8.57;;;7.88;;
3677;SDS011;1855;50.934;6.958;2023-02-18T00:46:17;8.20;;;7.50;;
3677;SDS011;1855;50.934;6.958;2023-02-18T00:48:44;8.73;;;8.03;;
3677;SDS011;1855;50.934;6.958;2023-02-18T00:51:11;8.38;;;7.68;;
3677;SDS011;1855;50.934;6.958;2023-02-18T00:53:38;8.98;;;8.27;;
3677;SDS011;1855;50.934;6.958;2023-02-18T00:56:06;8.63;;;7.72;;
3677;SDS011;1855;50.934;6.958;2023-02-18T00:58:33;8.38;;;7.68;;
3677;SDS011;1855;50.934;6.958;2023-02-18T01:01:01;8.60;;;7.90;;
3677;SDS011;1855;50.934;6.958;2023-02-18T01:03:29;9.02;;;8.23;;
3677;SDS011;1855;50.934;6.958;2023-02-18T01:05:56;8.20;;;7.50;;
3677;SDS011;1855;50.934;6.958;2023-02-18T01:08:23;8.55;;;7.85;;
3677;SDS011;1855;50.934;6.958;2023-02-18T01:10:52;7.70;;;7.10;;
3677;SDS011;1855;50.934;6.958;2023-02-18T01:13:20;8.00;;;7.30;;
3677;SDS011;1855;50.934;6.958;2023-02-18T01:15:47;8.48;;;7.78;;
3677;SDS011;1855;50.934;6.958;2023-02-18T01:18:14;9.10;;;8.30;;
3677;SDS011;1855;50.934;6.958;2023-02-18T01:20:43;8.98;;;8.18;;
3677;SDS011;1855;50.934;6.958;2023-02-18T01:23:10;9.25;;;8.45;;
3677;SDS011;1855;50.934;6.958;2023-02-18T01:25:38;8.80;;;8.00;;
3677;SDS011;1855;50.934;6.958;2023-02-18T01:28:05;8.80;;;8.10;;
3677;SDS011;1855;50.934;6.958;2023-02-18T01:30:33;8.52;;;7.82;;
3677;SDS011;1855;50.934;6.958;2023-02-18T01:33:00;9.30;;;8.50;;
3677;SDS011;1855;50.934;6.958;2023-02-18T01:35:27;9.70;;;8.90;;
3677;SDS011;1855;50.934;6.958;2023-02-18T01:37:55;9.27;;;8.45;;
3677;SDS011;1855;50.934;6.958;2023-02-18T01:40:22;8.70;;;8.00;;
3677;SDS011;1855;50.934;6.958;2023-02-18T01:42:50;8.60;;;7.90;;
3677;SDS011;1855;50.934;6.958;2023-02-18T01:48:12;9.40;;;8.70;;
3677;SDS011;1855;50.934;6.958;2023-02-18T01:50:44;8.68;;;7.97;;
3677;SDS011;1855;50.934;6.958;2023-02-18T01:53:17;9.40;;;8.60;;
3677;SDS011;1855;50.934;6.958;2023-02-18T01:55:48;8.88;;;8.07;;
3677;SDS011;1855;50.934;6.958;2023-02-18T01:58:15;8.65;;;7.85;;
3677;SDS011;1855;50.934;6.958;2023-02-18T02:00:43;8.57;;;7.78;;
3677;SDS011;1855;50.934;6.958;2023-02-18T02:03:10;8.88;;;8.18;;
3677;SDS011;1855;50.934;6.958;2023-02-18T02:05:37;8.55;;;7.85;;
3677;SDS011;1855;50.934;6.958;2023-02-18T02:08:04;9.52;;;8.73;;
3677;SDS011;1855;50.934;6.958;2023-02-18T02:10:37;9.52;;;8.73;;
3677;SDS011;1855;50.934;6.958;2023-02-18T02:13:14;10.70;;;9.80;;
3677;SDS011;1855;50.934;6.958;2023-02-18T02:15:49;10.73;;;9.82;;
3677;SDS011;1855;50.934;6.958;2023-02-18T02:18:37;10.40;;;9.50;;
3677;SDS011;1855;50.934;6.958;2023-02-18T02:24:48;10.10;;;9.20;;
3677;SDS011;1855;50.934;6.958;2023-02-18T02:27:24;9.32;;;8.52;;
3677;SDS011;1855;50.934;6.958;2023-02-18T02:30:18;9.25;;;8.55;;
3677;SDS011;1855;50.934;6.958;2023-02-18T02:33:18;9.55;;;8.75;;
3677;SDS011;1855;50.934;6.958;2023-02-18T02:36:03;9.07;;;8.32;;
3677;SDS011;1855;50.934;6.958;2023-02-18T02:38:37;9.27;;;8.47;;
3677;SDS011;1855;50.934;6.958;2023-02-18T02:41:17;7.70;;;7.10;;
3677;SDS011;1855;50.934;6.958;2023-02-18T02:44:07;7.60;;;7.00;;
3677;SDS011;1855;50.934;6.958;2023-02-18T02:46:42;7.00;;;6.40;;
3677;SDS011;1855;50.934;6.958;2023-02-18T02:49:13;7.10;;;6.57;;
3677;SDS011;1855;50.934;6.958;2023-02-18T02:51:52;6.90;;;6.40;;
3677;SDS011;1855;50.934;6.958;2023-02-18T02:54:25;6.50;;;6.00;;
3677;SDS011;1855;50.934;6.958;2023-02-18T02:57:03;6.22;;;5.63;;
3677;SDS011;1855;50.934;6.958;2023-02-18T02:59:31;6.20;;;5.70;;
3677;SDS011;1855;50.934;6.958;2023-02-18T03:02:05;6.20;;;5.70;;
3677;SDS011;1855;50.934;6.958;2023-02-18T03:07:38;4.38;;;4.00;;
3677;SDS011;1855;50.934;6.958;2023-02-18T03:10:28;4.50;;;4.10;;
3677;SDS011;1855;50.934;6.958;2023-02-18T03:13:06;4.07;;;3.78;;
3677;SDS011;1855;50.934;6.958;2023-02-18T03:15:37;4.00;;;3.70;;
3677;SDS011;1855;50.934;6.958;2023-02-18T03:18:13;3.83;;;3.53;;
3677;SDS011;1855;50.934;6.958;2023-02-18T03:20:46;3.47;;;2.90;;
3677;SDS011;1855;50.934;6.958;2023-02-18T03:23:20;2.92;;;2.72;;
3677;SDS011;1855;50.934;6.958;2023-02-18T03:25:52;3.50;;;3.20;;
3677;SDS011;1855;50.934;6.958;2023-02-18T03:28:20;3.28;;;3.00;;
3677;SDS011;1855;50.934;6.958;2023-02-18T03:30:50;2.90;;;2.70;;
3677;SDS011;1855;50.934;6.958;2023-02-18T03:33:22;2.80;;;2.60;;
3677;SDS011;1855;50.934;6.958;2023-02-18T03:35:53;2.50;;;2.30;;
3677;SDS011;1855;50.934;6.958;2023-02-18T03:38:23;2.80;;;2.50;;
3677;SDS011;1855;50.934;6.958;2023-02-18T03:40:54;2.90;;;2.70;;
3677;SDS011;1855;50.934;6.958;2023-02-18T03:43:22;2.60;;;2.40;;
3677;SDS011;1855;50.934;6.958;2023-02-18T03:45:48;2.50;;;2.20;;
3677;SDS011;1855;50.934;6.958;2023-02-18T03:48:15;2.50;;;2.30;;
3677;SDS011;1855;50.934;6.958;2023-02-18T03:50:42;2.70;;;2.50;;
3677;SDS011;1855;50.934;6.958;2023-02-18T03:53:09;2.90;;;2.60;;
3677;SDS011;1855;50.934;6.958;2023-02-18T03:55:37;3.20;;;2.90;;
3677;SDS011;1855;50.934;6.958;2023-02-18T03:58:04;2.55;;;2.08;;
3677;SDS011;1855;50.934;6.958;2023-02-18T04:00:31;2.22;;;2.03;;
3677;SDS011;1855;50.934;6.958;2023-02-18T04:02:57;2.20;;;2.00;;
3677;SDS011;1855;50.934;6.958;2023-02-18T04:05:24;2.00;;;1.80;;
3677;SDS011;1855;50.934;6.958;2023-02-18T04:07:51;1.88;;;1.50;;
3677;SDS011;1855;50.934;6.958;2023-02-18T04:10:18;2.40;;;2.20;;
3677;SDS011;1855;50.934;6.958;2023-02-18T04:12:48;1.77;;;1.50;;
3677;SDS011;1855;50.934;6.958;2023-02-18T04:15:14;1.60;;;1.50;;
3677;SDS011;1855;50.934;6.958;2023-02-18T04:17:41;1.90;;;1.50;;
3677;SDS011;1855;50.934;6.958;2023-02-18T04:20:08;1.20;;;1.10;;
3677;SDS011;1855;50.934;6.958;2023-02-18T04:22:36;1.50;;;0.80;;
3677;SDS011;1855;50.934;6.958;2023-02-18T04:25:03;1.10;;;0.95;;
3677;SDS011;1855;50.934;6.958;2023-02-18T04:27:30;1.30;;;0.70;;
3677;SDS011;1855;50.934;6.958;2023-02-18T04:29:58;0.88;;;0.80;;
3677;SDS011;1855;50.934;6.958;2023-02-18T04:32:25;0.80;;;0.60;;
3677;SDS011;1855;50.934;6.958;2023-02-18T04:34:51;0.80;;;0.60;;
3677;SDS011;1855;50.934;6.958;2023-02-18T04:37:18;1.10;;;0.50;;
3677;SDS011;1855;50.934;6.958;2023-02-18T04:39:45;0.80;;;0.60;;
3677;SDS011;1855;50.934;6.958;2023-02-18T04:42:11;1.10;;;0.50;;
3677;SDS011;1855;50.934;6.958;2023-02-18T04:44:38;0.80;;;0.50;;
3677;SDS011;1855;50.934;6.958;2023-02-18T04:47:06;0.90;;;0.50;;
3677;SDS011;1855;50.934;6.958;2023-02-18T04:49:33;0.73;;;0.50;;
3677;SDS011;1855;50.934;6.958;2023-02-18T04:52:01;0.70;;;0.50;;
3677;SDS011;1855;50.934;6.958;2023-02-18T04:54:28;0.70;;;0.50;;
3677;SDS011;1855;50.934;6.958;2023-02-18T04:56:55;0.80;;;0.50;;
3677;SDS011;1855;50.934;6.958;2023-02-18T04:59:21;0.90;;;0.55;;
3677;SDS011;1855;50.934;6.958;2023-02-18T05:01:48;0.90;;;0.70;;
3677;SDS011;1855;50.934;6.958;2023-02-18T05:04:17;1.10;;;0.60;;
3677;SDS011;1855;50.934;6.958;2023-02-18T05:06:43;1.20;;;0.60;;
3677;SDS011;1855;50.934;6.958;2023-02-18T05:09:10;0.80;;;0.70;;
3677;SDS011;1855;50.934;6.958;2023-02-18T05:11:37;1.80;;;0.70;;
3677;SDS011;1855;50.934;6.958;2023-02-18T05:14:04;0.85;;;0.80;;
3677;SDS011;1855;50.934;6.958;2023-02-18T05:16:31;2.00;;;1.20;;
3677;SDS011;1855;50.934;6.958;2023-02-18T05:18:57;1.10;;;0.90;;
3677;SDS011;1855;50.934;6.958;2023-02-18T05:21:25;1.40;;;1.10;;
3677;SDS011;1855;50.934;6.958;2023-02-18T05:23:52;1.35;;;1.00;;
3677;SDS011;1855;50.934;6.958;2023-02-18T05:26:19;1.20;;;1.10;;
3677;SDS011;1855;50.934;6.958;2023-02-18T05:28:46;2.40;;;1.20;;
3677;SDS011;1855;50.934;6.958;2023-02-18T05:31:12;1.50;;;1.40;;
3677;SDS011;1855;50.934;6.958;2023-02-18T05:33:39;1.30;;;1.10;;
3677;SDS011;1855;50.934;6.958;2023-02-18T05:36:06;2.30;;;1.40;;
3677;SDS011;1855;50.934;6.958;2023-02-18T05:38:35;1.60;;;1.20;;
3677;SDS011;1855;50.934;6.958;2023-02-18T05:41:01;1.48;;;1.10;;
3677;SDS011;1855;50.934;6.958;2023-02-18T05:43:28;1.35;;;1.05;;
3677;SDS011;1855;50.934;6.958;2023-02-18T05:46:15;3.33;;;1.00;;
3677;SDS011;1855;50.934;6.958;2023-02-18T05:48:42;1.63;;;1.15;;
3677;SDS011;1855;50.934;6.958;2023-02-18T05:51:09;2.30;;;1.02;;
3677;SDS011;1855;50.934;6.958;2023-02-18T05:53:37;1.70;;;1.00;;
3677;SDS011;1855;50.934;6.958;2023-02-18T05:56:04;1.10;;;1.00;;
3677;SDS011;1855;50.934;6.958;2023-02-18T05:58:31;1.02;;;0.90;;
3677;SDS011;1855;50.934;6.958;2023-02-18T06:00:58;1.30;;;0.93;;
3677;SDS011;1855;50.934;6.958;2023-02-18T06:03:25;1.00;;;0.90;;
3677;SDS011;1855;50.934;6.958;2023-02-18T06:05:51;1.30;;;1.00;;
3677;SDS011;1855;50.934;6.958;2023-02-18T06:08:18;1.00;;;0.90;;
3677;SDS011;1855;50.934;6.958;2023-02-18T06:10:46;0.80;;;0.80;;
3677;SDS011;1855;50.934;6.958;2023-02-18T06:13:13;1.20;;;0.90;;
3677;SDS011;1855;50.934;6.958;2023-02-18T06:15:40;1.10;;;0.90;;
3677;SDS011;1855;50.934;6.958;2023-02-18T06:18:06;0.80;;;0.80;;
3677;SDS011;1855;50.934;6.958;2023-02-18T06:20:33;1.50;;;1.25;;
3677;SDS011;1855;50.934;6.958;2023-02-18T06:23:00;1.60;;;1.50;;
3677;SDS011;1855;50.934;6.958;2023-02-18T06:25:26;1.20;;;1.03;;
3677;SDS011;1855;50.934;6.958;2023-02-18T06:27:55;1.10;;;0.90;;
3677;SDS011;1855;50.934;6.958;2023-02-18T06:30:21;1.60;;;1.20;;
3677;SDS011;1855;50.934;6.958;2023-02-18T06:32:48;1.30;;;1.05;;
3677;SDS011;1855;50.934;6.958;2023-02-18T06:35:15;1.10;;;1.00;;
3677;SDS011;1855;50.934;6.958;2023-02-18T06:37:42;1.20;;;1.10;;
3677;SDS011;1855;50.934;6.958;2023-02-18T06:40:10;0.80;;;0.70;;
3677;SDS011;1855;50.934;6.958;2023-02-18T06:42:37;0.90;;;0.80;;
3677;SDS011;1855;50.934;6.958;2023-02-18T06:45:05;0.80;;;0.50;;
3677;SDS011;1855;50.934;6.958;2023-02-18T06:47:32;0.70;;;0.50;;
3677;SDS011;1855;50.934;6.958;2023-02-18T06:49:59;1.05;;;0.73;;
3677;SDS011;1855;50.934;6.958;2023-02-18T06:52:26;0.90;;;0.50;;
3677;SDS011;1855;50.934;6.958;2023-02-18T06:54:54;0.70;;;0.40;;
3677;SDS011;1855;50.934;6.958;2023-02-18T06:57:21;1.30;;;0.50;;
3677;SDS011;1855;50.934;6.958;2023-02-18T06:59:48;0.70;;;0.40;;
3677;SDS011;1855;50.934;6.958;2023-02-18T07:02:16;0.80;;;0.60;;
3677;SDS011;1855;50.934;6.958;2023-02-18T07:04:42;1.10;;;0.40;;
3677;SDS011;1855;50.934;6.958;2023-02-18T07:07:10;0.60;;;0.40;;
3677;SDS011;1855;50.934;6.958;2023-02-18T07:09:37;0.70;;;0.50;;
3677;SDS011;1855;50.934;6.958;2023-02-18T07:12:04;0.60;;;0.40;;
3677;SDS011;1855;50.934;6.958;2023-02-18T07:14:31;0.68;;;0.40;;
3677;SDS011;1855;50.934;6.958;2023-02-18T07:16:58;0.70;;;0.40;;
3677;SDS011;1855;50.934;6.958;2023-02-18T07:19:26;0.68;;;0.35;;
3677;SDS011;1855;50.934;6.958;2023-02-18T07:21:52;0.80;;;0.47;;
3677;SDS011;1855;50.934;6.958;2023-02-18T07:24:21;0.70;;;0.50;;
3677;SDS011;1855;50.934;6.958;2023-02-18T07:26:48;0.80;;;0.50;;
3677;SDS011;1855;50.934;6.958;2023-02-18T07:29:15;0.70;;;0.50;;
3677;SDS011;1855;50.934;6.958;2023-02-18T07:31:42;0.75;;;0.50;;
3677;SDS011;1855;50.934;6.958;2023-02-18T07:34:09;0.60;;;0.50;;
3677;SDS011;1855;50.934;6.958;2023-02-18T07:36:37;0.70;;;0.50;;
3677;SDS011;1855;50.934;6.958;2023-02-18T07:39:03;0.70;;;0.50;;
3677;SDS011;1855;50.934;6.958;2023-02-18T07:41:30;1.30;;;0.80;;
3677;SDS011;1855;50.934;6.958;2023-02-18T07:43:57;1.30;;;0.60;;
3677;SDS011;1855;50.934;6.958;2023-02-18T07:46:24;0.93;;;0.70;;
3677;SDS011;1855;50.934;6.958;2023-02-18T07:48:51;1.00;;;0.60;;
3677;SDS011;1855;50.934;6.958;2023-02-18T07:51:17;1.00;;;0.70;;
3677;SDS011;1855;50.934;6.958;2023-02-18T07:53:46;0.70;;;0.50;;
3677;SDS011;1855;50.934;6.958;2023-02-18T07:56:13;0.70;;;0.55;;
3677;SDS011;1855;50.934;6.958;2023-02-18T07:58:39;0.70;;;0.50;;
3677;SDS011;1855;50.934;6.958;2023-02-18T08:01:07;0.80;;;0.60;;
3677;SDS011;1855;50.934;6.958;2023-02-18T08:03:36;0.82;;;0.70;;
3677;SDS011;1855;50.934;6.958;2023-02-18T08:06:03;1.00;;;0.60;;
3677;SDS011;1855;50.934;6.958;2023-02-18T08:08:31;1.00;;;0.90;;
3677;SDS011;1855;50.934;6.958;2023-02-18T08:11:00;1.10;;;0.90;;
3677;SDS011;1855;50.934;6.958;2023-02-18T08:13:28;1.38;;;1.20;;
3677;SDS011;1855;50.934;6.958;2023-02-18T08:15:55;1.30;;;1.20;;
3677;SDS011;1855;50.934;6.958;2023-02-18T08:18:22;1.70;;;1.20;;
3677;SDS011;1855;50.934;6.958;2023-02-18T08:20:50;1.40;;;1.30;;
3677;SDS011;1855;50.934;6.958;2023-02-18T08:23:18;2.00;;;1.40;;
3677;SDS011;1855;50.934;6.958;2023-02-18T08:25:46;3.00;;;1.38;;
3677;SDS011;1855;50.934;6.958;2023-02-18T08:28:15;2.60;;;1.40;;
3677;SDS011;1855;50.934;6.958;2023-02-18T08:30:43;1.75;;;1.65;;
3677;SDS011;1855;50.934;6.958;2023-02-18T08:33:10;3.67;;;1.52;;
3677;SDS011;1855;50.934;6.958;2023-02-18T08:35:37;3.67;;;1.95;;
3677;SDS011;1855;50.934;6.958;2023-02-18T08:38:04;4.47;;;2.20;;
3677;SDS011;1855;50.934;6.958;2023-02-18T08:40:31;4.95;;;2.40;;
3677;SDS011;1855;50.934;6.958;2023-02-18T08:42:58;4.80;;;2.00;;
3677;SDS011;1855;50.934;6.958;2023-02-18T08:45:26;4.83;;;2.37;;
3677;SDS011;1855;50.934;6.958;2023-02-18T08:47:53;3.60;;;2.38;;
3677;SDS011;1855;50.934;6.958;2023-02-18T08:50:20;4.88;;;2.03;;
3677;SDS011;1855;50.934;6.958;2023-02-18T08:52:50;6.47;;;2.20;;
3677;SDS011;1855;50.934;6.958;2023-02-18T08:55:17;4.10;;;2.60;;
3677;SDS011;1855;50.934;6.958;2023-02-18T08:57:45;3.42;;;2.25;;
3677;SDS011;1855;50.934;6.958;2023-02-18T09:00:12;5.20;;;2.67;;
3677;SDS011;1855;50.934;6.958;2023-02-18T09:02:42;3.08;;;2.05;;
3677;SDS011;1855;50.934;6.958;2023-02-18T09:05:09;5.35;;;2.55;;
3677;SDS011;1855;50.934;6.958;2023-02-18T09:07:36;4.40;;;2.30;;
3677;SDS011;1855;50.934;6.958;2023-02-18T09:10:03;4.82;;;2.45;;
3677;SDS011;1855;50.934;6.958;2023-02-18T09:12:31;3.47;;;2.40;;
3677;SDS011;1855;50.934;6.958;2023-02-18T09:14:58;4.63;;;2.20;;
3677;SDS011;1855;50.934;6.958;2023-02-18T09:17:25;5.00;;;2.80;;
3677;SDS011;1855;50.934;6.958;2023-02-18T09:19:53;5.78;;;2.60;;
3677;SDS011;1855;50.934;6.958;2023-02-18T09:22:20;4.85;;;2.60;;
3677;SDS011;1855;50.934;6.958;2023-02-18T09:24:47;6.20;;;2.60;;
3677;SDS011;1855;50.934;6.958;2023-02-18T09:27:13;4.88;;;2.17;;
3677;SDS011;1855;50.934;6.958;2023-02-18T09:29:40;7.00;;;2.50;;
3677;SDS011;1855;50.934;6.958;2023-02-18T09:32:08;4.75;;;2.20;;
3677;SDS011;1855;50.934;6.958;2023-02-18T09:34:36;3.75;;;2.00;;
3677;SDS011;1855;50.934;6.958;2023-02-18T09:37:04;3.80;;;1.90;;
3677;SDS011;1855;50.934;6.958;2023-02-18T09:39:31;4.03;;;2.17;;
3677;SDS011;1855;50.934;6.958;2023-02-18T09:41:58;6.10;;;2.10;;
3677;SDS011;1855;50.934;6.958;2023-02-18T09:44:29;4.43;;;2.10;;
3677;SDS011;1855;50.934;6.958;2023-02-18T09:46:59;4.00;;;2.15;;
3677;SDS011;1855;50.934;6.958;2023-02-18T09:49:30;5.22;;;2.50;;
3677;SDS011;1855;50.934;6.958;2023-02-18T09:52:02;6.10;;;2.40;;
3677;SDS011;1855;50.934;6.958;2023-02-18T09:54:35;4.07;;;2.30;;
3677;SDS011;1855;50.934;6.958;2023-02-18T09:57:02;6.75;;;2.50;;
3677;SDS011;1855;50.934;6.958;2023-02-18T09:59:31;3.53;;;1.80;;
3677;SDS011;1855;50.934;6.958;2023-02-18T10:01:58;3.63;;;2.20;;
3677;SDS011;1855;50.934;6.958;2023-02-18T10:04:27;5.63;;;2.22;;
3677;SDS011;1855;50.934;6.958;2023-02-18T10:06:58;5.35;;;2.38;;
3677;SDS011;1855;50.934;6.958;2023-02-18T10:09:30;4.88;;;2.10;;
3677;SDS011;1855;50.934;6.958;2023-02-18T10:12:03;6.93;;;2.40;;
3677;SDS011;1855;50.934;6.958;2023-02-18T10:14:38;6.47;;;2.30;;
3677;SDS011;1855;50.934;6.958;2023-02-18T10:17:05;9.75;;;3.10;;
3677;SDS011;1855;50.934;6.958;2023-02-18T10:19:33;7.38;;;2.20;;
3677;SDS011;1855;50.934;6.958;2023-02-18T10:22:05;3.97;;;2.33;;
3677;SDS011;1855;50.934;6.958;2023-02-18T10:24:36;4.47;;;2.35;;
3677;SDS011;1855;50.934;6.958;2023-02-18T10:27:08;5.97;;;2.60;;
3677;SDS011;1855;50.934;6.958;2023-02-18T10:29:38;4.15;;;2.17;;
3677;SDS011;1855;50.934;6.958;2023-02-18T10:32:06;4.40;;;2.30;;
3677;SDS011;1855;50.934;6.958;2023-02-18T10:34:44;5.00;;;2.90;;
3677;SDS011;1855;50.934;6.958;2023-02-18T10:40:10;5.00;;;2.90;;
3677;SDS011;1855;50.934;6.958;2023-02-18T10:42:45;5.53;;;2.95;;
3677;SDS011;1855;50.934;6.958;2023-02-18T10:45:24;3.83;;;2.67;;
3677;SDS011;1855;50.934;6.958;2023-02-18T10:48:01;4.15;;;2.78;;
3677;SDS011;1855;50.934;6.958;2023-02-18T10:50:38;4.22;;;3.00;;
3677;SDS011;1855;50.934;6.958;2023-02-18T10:53:08;3.90;;;2.60;;
3677;SDS011;1855;50.934;6.958;2023-02-18T10:55:40;3.67;;;2.80;;
3677;SDS011;1855;50.934;6.958;2023-02-18T10:58:22;4.45;;;2.83;;
3677;SDS011;1855;50.934;6.958;2023-02-18T11:00:56;3.70;;;2.95;;
3677;SDS011;1855;50.934;6.958;2023-02-18T11:03:24;4.20;;;3.00;;
3677;SDS011;1855;50.934;6.958;2023-02-18T11:05:51;6.65;;;3.05;;
3677;SDS011;1855;50.934;6.958;2023-02-18T11:08:21;4.35;;;3.72;;
3677;SDS011;1855;50.934;6.958;2023-02-18T11:10:52;5.60;;;3.80;;
3677;SDS011;1855;50.934;6.958;2023-02-18T11:13:24;6.25;;;4.20;;
3677;SDS011;1855;50.934;6.958;2023-02-18T11:15:53;5.75;;;4.47;;
3677;SDS011;1855;50.934;6.958;2023-02-18T11:18:35;7.05;;;4.80;;
3677;SDS011;1855;50.934;6.958;2023-02-18T11:21:05;5.00;;;4.50;;
3677;SDS011;1855;50.934;6.958;2023-02-18T11:23:46;6.20;;;5.07;;
3677;SDS011;1855;50.934;6.958;2023-02-18T11:26:16;5.65;;;4.85;;
3677;SDS011;1855;50.934;6.958;2023-02-18T11:28:47;5.70;;;4.93;;
3677;SDS011;1855;50.934;6.958;2023-02-18T11:31:16;5.10;;;4.70;;
3677;SDS011;1855;50.934;6.958;2023-02-18T11:33:47;4.50;;;4.10;;
3677;SDS011;1855;50.934;6.958;2023-02-18T11:36:18;5.40;;;4.20;;
3677;SDS011;1855;50.934;6.958;2023-02-18T11:38:50;4.78;;;4.03;;
3677;SDS011;1855;50.934;6.958;2023-02-18T11:41:21;6.00;;;4.65;;
3677;SDS011;1855;50.934;6.958;2023-02-18T11:43:59;4.80;;;4.30;;
3677;SDS011;1855;50.934;6.958;2023-02-18T11:46:27;4.10;;;3.70;;
3677;SDS011;1855;50.934;6.958;2023-02-18T11:48:54;3.92;;;3.53;;
3677;SDS011;1855;50.934;6.958;2023-02-18T11:51:23;4.28;;;3.33;;
3677;SDS011;1855;50.934;6.958;2023-02-18T11:53:56;3.67;;;3.30;;
3677;SDS011;1855;50.934;6.958;2023-02-18T11:56:27;4.70;;;3.20;;
3677;SDS011;1855;50.934;6.958;2023-02-18T11:58:55;4.22;;;3.28;;
3677;SDS011;1855;50.934;6.958;2023-02-18T12:01:26;3.70;;;3.40;;
3677;SDS011;1855;50.934;6.958;2023-02-18T12:03:59;5.00;;;3.78;;
3677;SDS011;1855;50.934;6.958;2023-02-18T12:06:31;4.43;;;4.03;;
3677;SDS011;1855;50.934;6.958;2023-02-18T12:09:03;4.97;;;4.30;;
3677;SDS011;1855;50.934;6.958;2023-02-18T12:11:35;5.80;;;4.10;;
3677;SDS011;1855;50.934;6.958;2023-02-18T12:14:08;4.53;;;4.13;;
3677;SDS011;1855;50.934;6.958;2023-02-18T12:16:43;4.60;;;4.20;;
3677;SDS011;1855;50.934;6.958;2023-02-18T12:19:23;4.60;;;4.07;;
3677;SDS011;1855;50.934;6.958;2023-02-18T12:22:08;4.60;;;3.30;;
3677;SDS011;1855;50.934;6.958;2023-02-18T12:24:44;3.90;;;3.60;;
3677;SDS011;1855;50.934;6.958;2023-02-18T12:27:23;3.90;;;3.42;;
3677;SDS011;1855;50.934;6.958;2023-02-18T12:30:00;3.55;;;3.10;;
3677;SDS011;1855;50.934;6.958;2023-02-18T12:32:42;3.75;;;3.45;;
3677;SDS011;1855;50.934;6.958;2023-02-18T12:35:27;4.50;;;3.10;;
3677;SDS011;1855;50.934;6.958;2023-02-18T12:38:17;3.05;;;2.75;;
3677;SDS011;1855;50.934;6.958;2023-02-18T12:40:59;2.70;;;2.50;;
3677;SDS011;1855;50.934;6.958;2023-02-18T12:43:42;3.30;;;3.00;;
3677;SDS011;1855;50.934;6.958;2023-02-18T12:46:21;5.40;;;3.33;;
3677;SDS011;1855;50.934;6.958;2023-02-18T12:49:03;2.90;;;2.70;;
3677;SDS011;1855;50.934;6.958;2023-02-18T12:51:48;3.30;;;2.70;;
3677;SDS011;1855;50.934;6.958;2023-02-18T12:54:26;3.50;;;3.20;;
3677;SDS011;1855;50.934;6.958;2023-02-18T13:00:08;3.75;;;2.80;;
3677;SDS011;1855;50.934;6.958;2023-02-18T13:03:01;3.00;;;2.60;;
3677;SDS011;1855;50.934;6.958;2023-02-18T13:06:02;4.63;;;3.00;;
3677;SDS011;1855;50.934;6.958;2023-02-18T13:08:40;4.72;;;2.70;;
3677;SDS011;1855;50.934;6.958;2023-02-18T13:11:26;2.97;;;2.72;;
3677;SDS011;1855;50.934;6.958;2023-02-18T13:13:59;3.30;;;3.00;;
3677;SDS011;1855;50.934;6.958;2023-02-18T13:16:34;3.90;;;2.90;;
3677;SDS011;1855;50.934;6.958;2023-02-18T13:19:06;4.00;;;3.15;;
3677;SDS011;1855;50.934;6.958;2023-02-18T13:21:43;3.40;;;2.93;;
3677;SDS011;1855;50.934;6.958;2023-02-18T13:24:12;2.83;;;2.63;;
3677;SDS011;1855;50.934;6.958;2023-02-18T13:26:45;3.80;;;3.20;;
3677;SDS011;1855;50.934;6.958;2023-02-18T13:29:18;3.00;;;2.70;;
3677;SDS011;1855;50.934;6.958;2023-02-18T13:31:57;3.08;;;2.60;;
3677;SDS011;1855;50.934;6.958;2023-02-18T13:34:35;3.55;;;3.20;;
3677;SDS011;1855;50.934;6.958;2023-02-18T13:37:09;4.00;;;2.65;;
3677;SDS011;1855;50.934;6.958;2023-02-18T13:39:45;2.80;;;2.50;;
3677;SDS011;1855;50.934;6.958;2023-02-18T13:42:23;3.00;;;2.70;;
3677;SDS011;1855;50.934;6.958;2023-02-18T13:47:57;2.47;;;2.28;;
3677;SDS011;1855;50.934;6.958;2023-02-18T13:50:41;2.95;;;2.50;;
3677;SDS011;1855;50.934;6.958;2023-02-18T13:53:13;2.80;;;2.50;;
3677;SDS011;1855;50.934;6.958;2023-02-18T13:55:47;2.53;;;2.13;;
3677;SDS011;1855;50.934;6.958;2023-02-18T13:58:21;4.47;;;3.10;;
3677;SDS011;1855;50.934;6.958;2023-02-18T14:00:52;3.40;;;2.80;;
3677;SDS011;1855;50.934;6.958;2023-02-18T14:03:38;4.50;;;3.08;;
3677;SDS011;1855;50.934;6.958;2023-02-18T14:06:18;5.00;;;3.00;;
3677;SDS011;1855;50.934;6.958;2023-02-18T14:08:45;3.10;;;2.80;;
3677;SDS011;1855;50.934;6.958;2023-02-18T14:11:24;3.00;;;2.70;;
3677;SDS011;1855;50.934;6.958;2023-02-18T14:17:12;3.17;;;2.87;;
3677;SDS011;1855;50.934;6.958;2023-02-18T14:22:58;3.60;;;2.50;;
3677;SDS011;1855;50.934;6.958;2023-02-18T14:25:33;3.00;;;2.42;;
3677;SDS011;1855;50.934;6.958;2023-02-18T14:28:03;3.20;;;2.50;;
3677;SDS011;1855;50.934;6.958;2023-02-18T14:31:04;2.30;;;2.10;;
3677;SDS011;1855;50.934;6.958;2023-02-18T14:33:43;1.90;;;1.80;;
3677;SDS011;1855;50.934;6.958;2023-02-18T14:36:18;2.30;;;2.10;;
3677;SDS011;1855;50.934;6.958;2023-02-18T14:38:56;2.40;;;1.90;;
3677;SDS011;1855;50.934;6.958;2023-02-18T14:41:30;1.80;;;1.70;;
3677;SDS011;1855;50.934;6.958;2023-02-18T14:44:15;2.30;;;1.50;;
3677;SDS011;1855;50.934;6.958;2023-02-18T14:46:53;1.77;;;1.47;;
3677;SDS011;1855;50.934;6.958;2023-02-18T14:49:37;1.60;;;1.50;;
3677;SDS011;1855;50.934;6.958;2023-02-18T14:52:11;2.75;;;1.40;;
3677;SDS011;1855;50.934;6.958;2023-02-18T14:54:44;4.55;;;2.22;;
3677;SDS011;1855;50.934;6.958;2023-02-18T14:57:12;3.90;;;1.73;;
3677;SDS011;1855;50.934;6.958;2023-02-18T14:59:42;3.67;;;1.60;;
3677;SDS011;1855;50.934;6.958;2023-02-18T15:02:14;2.35;;;1.70;;
3677;SDS011;1855;50.934;6.958;2023-02-18T15:04:45;1.60;;;1.40;;
3677;SDS011;1855;50.934;6.958;2023-02-18T15:07:12;1.70;;;1.50;;
3677;SDS011;1855;50.934;6.958;2023-02-18T15:09:45;2.10;;;2.00;;
3677;SDS011;1855;50.934;6.958;2023-02-18T15:12:13;2.60;;;2.40;;
3677;SDS011;1855;50.934;6.958;2023-02-18T15:14:43;2.90;;;2.45;;
3677;SDS011;1855;50.934;6.958;2023-02-18T15:17:12;2.90;;;1.92;;
3677;SDS011;1855;50.934;6.958;2023-02-18T15:19:43;2.40;;;2.20;;
3677;SDS011;1855;50.934;6.958;2023-02-18T15:22:16;2.20;;;2.00;;
3677;SDS011;1855;50.934;6.958;2023-02-18T15:24:46;2.22;;;2.00;;
3677;SDS011;1855;50.934;6.958;2023-02-18T15:27:14;2.20;;;2.00;;
3677;SDS011;1855;50.934;6.958;2023-02-18T15:29:43;2.70;;;2.22;;
3677;SDS011;1855;50.934;6.958;2023-02-18T15:32:13;2.10;;;2.00;;
3677;SDS011;1855;50.934;6.958;2023-02-18T15:34:42;2.60;;;1.70;;
3677;SDS011;1855;50.934;6.958;2023-02-18T15:37:10;2.17;;;1.98;;
3677;SDS011;1855;50.934;6.958;2023-02-18T15:39:38;2.85;;;2.08;;
3677;SDS011;1855;50.934;6.958;2023-02-18T15:42:08;2.75;;;2.00;;
3677;SDS011;1855;50.934;6.958;2023-02-18T15:44:44;1.80;;;1.70;;
3677;SDS011;1855;50.934;6.958;2023-02-18T15:47:12;3.33;;;2.20;;
3677;SDS011;1855;50.934;6.958;2023-02-18T15:49:43;2.05;;;1.80;;
3677;SDS011;1855;50.934;6.958;2023-02-18T15:52:12;1.92;;;1.80;;
3677;SDS011;1855;50.934;6.958;2023-02-18T15:54:40;2.20;;;1.90;;
3677;SDS011;1855;50.934;6.958;2023-02-18T15:57:10;1.92;;;1.83;;
3677;SDS011;1855;50.934;6.958;2023-02-18T15:59:44;1.88;;;1.77;;
3677;SDS011;1855;50.934;6.958;2023-02-18T16:02:17;2.33;;;2.13;;